• Join FlightAware (Why Join?)
  • Login
  • US Flag 
03:43PM EDT


 

Airport Tracker/Info


-or-


 

Live Flight TrackerFlight Track Log ✈ SWA1096 ✈ 15-Apr-2013 ✈ KSLC - KBWI

Flight Track Log - Related Links

Times and Time Zones

All times are in EDT time to prevent confusion due to time zone crossing. See the SWA1096 flight status page for this flight to view local times or setup timezone preferences in your user account.

Time Position Orientation Groundspeed Altitude Reporting Facility
EDT Latitude Longitude Course Direction KTS MPH feet Rate Location/Type
11:07AM 40.7758 -111.9983 232° Southwest 175 201 4,800  Level Salt Lake Center
11:07AM 40.7547 -112.0339 232° Southwest 187 215 6,000 2,040 Climbing Salt Lake Center
11:08AM 40.7808 -112.0900 302° West 232 267 8,400 2,460 Climbing Salt Lake Center
11:09AM 40.8044 -112.0797 18° North 234 269 9,400 2,460 Climbing Salt Lake Center
11:10AM 40.8453 -111.9972 57° Northeast 271 312 12,100 2,100 Climbing Salt Lake Center
11:11AM 40.8944 -111.8975 57° Northeast 341 392 13,800 2,340 Climbing Salt Lake Center
11:12AM 40.9594 -111.7653 57° Northeast 373 429 17,000 2,820 Climbing Salt Lake Center
11:13AM 41.0167 -111.6458 58° Northeast 395 455 19,700 2,460 Climbing Salt Lake Center
11:14AM 41.0394 -111.4933 79° East 423 487 22,200 2,460 Climbing Salt Lake Center
11:15AM 41.0539 -111.3308 83° East 443 510 24,800 2,100 Climbing Salt Lake Center
11:16AM 41.0681 -111.1658 83° East 448 516 26,600 1,740 Climbing Salt Lake Center
11:17AM 41.1050 -110.9569 77° East 483 556 28,400 1,500 Climbing Salt Lake Center
11:18AM 41.1508 -110.7794 71° East 505 581 29,800 1,320 Climbing Salt Lake Center
11:19AM 41.1947 -110.6025 72° East 519 597 31,200 1,740 Climbing Salt Lake Center
11:20AM 41.2483 -110.3958 71° East 531 611 33,500 1,740 Climbing Salt Lake Center
11:21AM 41.2925 -110.2214 71° East 522 601 34,800 1,200 Climbing Salt Lake Center
11:22AM 41.3444 -110.0150 71° East 526 605 36,100 1,020 Climbing Salt Lake Center
11:23AM 41.3889 -109.8367 72° East 530 610 37,000 420 Climbing Salt Lake Center
11:24AM 41.4400 -109.6297 72° East 528 608 37,000  Level Salt Lake Center
11:25AM 41.4844 -109.4506 72° East 528 608 37,000  Level Salt Lake Center
11:26AM 41.5286 -109.2697 72° East 529 609 37,000  Level Salt Lake Center
11:27AM 41.5797 -109.0567 72° East 529 609 37,000  Level Salt Lake Center
11:28AM 41.6014 -108.8700 81° East 524 603 37,000  Level Salt Lake Center
11:29AM 41.6183 -108.6544 84° East 520 598 37,000  Level Salt Lake Center
11:30AM 41.6322 -108.4692 84° East 522 601 37,000  Level Salt Lake Center
11:31AM 41.6453 -108.2847 85° East 521 600 37,000  Level Salt Lake Center
11:32AM 41.6611 -108.0692 84° East 520 598 37,000  Level Salt Lake Center
11:34AM 41.6758 -107.8506 85° East 523 602 37,000  Level Denver Center
11:35AM 41.6892 -107.6689 84° East 515 593 37,000  Level Denver Center
11:36AM 41.7036 -107.4528 85° East 523 602 37,000  Level Denver Center
11:37AM 41.7153 -107.2681 85° East 521 600 37,000 60 Level Denver Center
11:38AM 41.7283 -107.0517 85° East 523 602 37,200 480 Climbing Denver Center
11:39AM 41.7400 -106.8633 85° East 529 609 38,100 840 Climbing Denver Center
11:40AM 41.7525 -106.6428 86° East 533 613 39,000 420 Climbing Denver Center
11:41AM 41.7631 -106.4689 85° East 529 609 39,000  Level Denver Center
11:42AM 41.7750 -106.2528 86° East 524 603 39,000  Level Denver Center
11:43AM 41.7853 -106.0672 86° East 523 602 39,000  Level Denver Center
11:44AM 41.7936 -105.8522 87° East 519 597 39,000  Level Denver Center
11:45AM 41.8014 -105.6669 87° East 521 600 39,000  Level Denver Center
11:46AM 41.8094 -105.4511 87° East 522 601 39,000  Level Denver Center
11:47AM 41.8167 -105.2667 87° East 521 600 39,000  Level Denver Center
11:48AM 41.8239 -105.0508 87° East 521 600 39,000  Level Denver Center
11:49AM 41.8308 -104.8692 87° East 516 594 39,000  Level Denver Center
11:50AM 41.8378 -104.6550 87° East 516 594 39,000  Level Denver Center
11:51AM 41.8433 -104.4700 88° East 520 598 39,000  Level Denver Center
11:52AM 41.8492 -104.2528 88° East 524 603 39,000  Level Denver Center
11:53AM 41.8556 -104.0664 87° East 526 605 39,000  Level Denver Center
11:54AM 41.8608 -103.8467 88° East 531 611 39,000  Level Denver Center
11:55AM 41.8650 -103.6606 88° East 527 606 39,000  Level Denver Center
11:56AM 41.8703 -103.4419 88° East 527 606 39,000  Level Denver Center
11:57AM 41.8742 -103.2544 88° East 528 608 39,000  Level Denver Center
11:58AM 41.8778 -103.0364 89° East 525 604 39,000  Level Denver Center
11:59AM 41.8808 -102.8508 89° East 524 603 39,000  Level Denver Center
12:00PM 41.8844 -102.6339 89° East 522 601 39,000  Level Denver Center
12:01PM 41.8878 -102.4492 89° East 519 597 39,000  Level Denver Center
12:02PM 41.8903 -102.2344 89° East 517 595 39,000  Level Denver Center
12:03PM 41.8914 -102.0475 89° East 517 595 39,000  Level Denver Center
12:05PM 41.8942 -101.8636 89° East 515 593 39,000  Level Denver Center
12:06PM 41.8972 -101.6486 89° East 514 592 39,000  Level Denver Center
12:07PM 41.8956 -101.4678 91° East 508 585 39,000  Level Denver Center
12:08PM 41.8969 -101.2556 89° East 508 585 39,000  Level Denver Center
12:09PM 41.8975 -101.0722 90° East 510 587 39,000  Level Denver Center
12:10PM 41.8972 -100.8583 90° East 512 589 39,000  Level Denver Center
12:11PM 41.8975 -100.6731 90° East 516 594 39,000  Level Denver Center
12:12PM 41.8972 -100.4903 90° East 512 589 39,000  Level Denver Center
12:13PM 41.8953 -100.2739 91° East 517 595 39,000  Level Denver Center
12:14PM 41.8939 -100.0889 91° East 517 595 39,000  Level Denver Center
12:15PM 41.8922 -99.8744 91° East 515 593 39,000  Level Denver Center
12:16PM 41.8906 -99.6822 91° East 516 594 39,000  Level Denver Center
12:17PM 41.8886 -99.4906 91° East 514 592 39,000  Level Denver Center
12:18PM 41.8858 -99.2969 91° East 515 593 39,000  Level Denver Center
12:19PM 41.8828 -99.1028 91° East 517 595 39,000  Level Denver Center
12:19PM 41.8819 -99.0642 92° East 517 595 39,000  Level Minneapolis Center
12:20PM 41.8781 -98.8319 91° East 517 595 39,000  Level Minneapolis Center
12:21PM 41.8756 -98.6386 91° East 516 594 39,000  Level Minneapolis Center
12:22PM 41.8711 -98.4436 92° East 518 596 39,000  Level Minneapolis Center
12:23PM 41.8667 -98.2486 92° East 519 597 39,000  Level Minneapolis Center
12:24PM 41.8617 -98.0664 92° East 520 598 39,000  Level Minneapolis Center
12:25PM 41.8578 -97.8711 91° East 522 601 39,000  Level Minneapolis Center
12:26PM 41.8525 -97.6764 92° East 522 601 39,000  Level Minneapolis Center
12:27PM 41.8442 -97.4439 93° East 520 598 39,000  Level Minneapolis Center
12:28PM 41.8389 -97.2514 92° East 519 597 39,000  Level Minneapolis Center
12:30PM 41.8333 -97.0603 92° East 514 592 39,000  Level Minneapolis Center
12:31PM 41.8256 -96.8703 93° East 511 588 39,000  Level Minneapolis Center
12:32PM 41.8189 -96.6794 93° East 511 588 39,000  Level Minneapolis Center
12:33PM 41.8125 -96.4903 93° East 507 583 39,000  Level Minneapolis Center
12:34PM 41.8044 -96.2972 93° East 514 592 39,000  Level Minneapolis Center
12:35PM 41.7964 -96.1036 93° East 515 593 39,000  Level Minneapolis Center
12:36PM 41.7883 -95.9103 93° East 516 594 39,000  Level Minneapolis Center
12:37PM 41.7800 -95.7189 93° East 512 589 39,000  Level Minneapolis Center
12:38PM 41.7686 -95.4869 94° East 517 595 39,000  Level Minneapolis Center
12:39PM 41.7592 -95.2956 94° East 514 592 39,000  Level Minneapolis Center
12:40PM 41.7492 -95.1025 94° East 518 596 39,000  Level Minneapolis Center
12:41PM 41.7389 -94.9086 94° East 520 598 39,000  Level Minneapolis Center
12:42PM 41.7278 -94.7139 94° East 523 602 39,000  Level Minneapolis Center
12:43PM 41.7167 -94.5178 94° East 526 605 39,000  Level Minneapolis Center
12:44PM 41.7067 -94.3231 94° East 525 604 39,000  Level Minneapolis Center
12:45PM 41.6944 -94.1256 95° East 530 610 39,000  Level Minneapolis Center
12:46PM 41.6800 -93.8711 94° East 534 615 39,000  Level Minneapolis Center
12:47PM 41.6689 -93.7153 95° East 532 612 39,000  Level Minneapolis Center
12:48PM 41.6544 -93.4781 95° East 534 615 39,000  Level Minneapolis Center
12:49PM 41.6400 -93.2403 95° East 537 618 39,000  Level Minneapolis Center
12:50PM 41.6244 -93.0447 96° East 534 615 39,000  Level Minneapolis Center
12:51PM 41.6064 -92.8494 97° East 533 613 39,000  Level Minneapolis Center
12:52PM 41.5875 -92.6536 97° East 534 615 39,000  Level Minneapolis Center
12:53PM 41.5719 -92.4794 97° East 529 609 39,000  Level Chicago Center
12:54PM 41.5544 -92.2856 97° East 531 611 39,000  Level Chicago Center
12:55PM 41.5356 -92.0928 97° East 531 611 39,000  Level Chicago Center
12:56PM 41.5178 -91.9008 97° East 529 609 39,000  Level Chicago Center
12:57PM 41.4978 -91.7106 98° East 526 605 39,000  Level Chicago Center
12:58PM 41.4753 -91.4817 97° East 526 605 39,000  Level Chicago Center
12:59PM 41.4569 -91.3117 98° East 525 604 39,000  Level Chicago Center
01:00PM 41.4375 -91.1197 98° East 523 602 39,000  Level Chicago Center
01:01PM 41.4131 -90.8919 98° East 518 596 39,000  Level Chicago Center
01:02PM 41.3919 -90.7006 98° East 520 598 39,000  Level Chicago Center
01:03PM 41.3711 -90.5128 98° East 515 593 39,000  Level Chicago Center
01:05PM 41.3497 -90.3222 98° East 517 595 39,000  Level Chicago Center
01:06PM 41.3289 -90.1325 98° East 517 595 39,000  Level Chicago Center
01:07PM 41.3069 -89.9414 99° East 520 598 39,000  Level Chicago Center
01:08PM 41.2850 -89.7489 99° East 522 601 39,000  Level Chicago Center
01:09PM 41.2625 -89.5589 99° East 517 595 39,000  Level Chicago Center
01:10PM 41.2347 -89.3294 99° East 520 598 39,000  Level Chicago Center
01:11PM 41.2133 -89.1483 99° East 518 596 39,000  Level Chicago Center
01:12PM 41.1889 -88.9594 100° East 521 600 39,000  Level Chicago Center
01:13PM 41.1639 -88.7725 100° East 520 598 39,000  Level Chicago Center
01:14PM 41.1356 -88.5503 100° East 516 594 39,000  Level Chicago Center
01:15PM 41.1131 -88.3672 99° East 509 586 39,000  Level Chicago Center
01:16PM 41.0894 -88.1842 100° East 513 590 39,000  Level Chicago Center
01:17PM 41.0653 -88.0022 100° East 511 588 39,000  Level Chicago Center
01:18PM 41.0358 -87.7844 100° East 509 586 39,000  Level Chicago Center
01:19PM 41.0114 -87.6031 100° East 508 585 39,000  Level Chicago Center
01:20PM 40.9864 -87.4211 100° East 507 583 39,000  Level Chicago Center
01:21PM 40.9600 -87.2406 101° East 506 582 39,000  Level Chicago Center
01:22PM 40.9344 -87.0592 101° East 506 582 39,000  Level Chicago Center
01:23PM 40.9033 -86.8397 101° East 508 585 39,000  Level Chicago Center
01:24PM 40.8781 -86.6717 101° East 509 586 39,000  Level Chicago Center
01:25PM 40.8514 -86.4886 101° East 510 587 39,000  Level Chicago Center
01:26PM 40.8239 -86.3072 101° East 507 583 39,000  Level Chicago Center
01:27PM 40.7906 -86.0886 101° East 511 588 39,000  Level Chicago Center
01:28PM 40.7628 -85.9072 101° East 510 587 39,000  Level Chicago Center
01:29PM 40.7342 -85.7267 102° East 509 586 39,000 120 Level Chicago Center
01:30PM 40.7058 -85.5419 101° East 515 593 39,300 480 Climbing Chicago Center
01:31PM 40.6761 -85.3569 102° East 519 597 40,000 300 Climbing Chicago Center
01:32PM 40.6347 -85.1342 104° East 524 603 40,000 -420 Level Chicago Center
01:33PM 40.6150 -85.0106 102° East 517 595 39,300 -1,200 Descending Indianapolis Center
01:34PM 40.5811 -84.8286 104° East 510 587 38,000 -660 Descending Indianapolis Center
01:35PM 40.5497 -84.6483 103° East 504 580 38,000  Level Indianapolis Center
01:36PM 40.5172 -84.4697 103° East 498 573 38,000  Level Indianapolis Center
01:37PM 40.4842 -84.2969 104° East 485 558 38,000  Level Indianapolis Center
01:38PM 40.4514 -84.1231 104° East 484 557 38,000  Level Indianapolis Center
01:39PM 40.4186 -83.9492 104° East 485 558 38,000  Level Indianapolis Center
01:40PM 40.3858 -83.7747 104° East 488 562 38,000  Level Indianapolis Center
01:41PM 40.3508 -83.5992 105° East 491 565 38,000  Level Indianapolis Center
01:42PM 40.3114 -83.3933 104° East 492 566 38,000  Level Indianapolis Center
01:43PM 40.2764 -83.2161 104° East 494 568 38,000  Level Indianapolis Center
01:44PM 40.2419 -83.0400 104° East 494 568 38,000 -180 Level Indianapolis Center
01:45PM 40.2222 -82.8592 98° East 496 571 37,700 -540 Descending Indianapolis Center
01:46PM 40.2006 -82.6797 99° East 494 568 37,000 -360 Descending Indianapolis Center
01:47PM 40.1803 -82.5014 98° East 492 566 37,000  Level Indianapolis Center
01:48PM 40.1581 -82.3228 99° East 494 568 37,000  Level Indianapolis Center
01:50PM 40.1361 -82.1453 99° East 491 565 37,000  Level Indianapolis Center
01:51PM 40.1153 -81.9669 99° East 492 566 37,000  Level Indianapolis Center
01:52PM 40.0925 -81.7914 100° East 489 563 37,000  Level Indianapolis Center
01:53PM 40.0692 -81.6058 99° East 487 560 37,000  Level Indianapolis Center
01:54PM 40.0472 -81.4314 99° East 484 557 37,000  Level Indianapolis Center
01:55PM 40.0247 -81.2581 100° East 484 557 37,000  Level Indianapolis Center
01:56PM 40.0036 -81.0681 98° East 483 556 37,000  Level Cleveland Center
01:57PM 39.9792 -80.8947 100° East 483 556 37,000  Level Cleveland Center
01:58PM 39.9567 -80.7239 100° East 483 556 37,000  Level Cleveland Center
01:59PM 39.9339 -80.5506 100° East 483 556 37,000  Level Cleveland Center
02:00PM 39.9086 -80.3775 101° East 483 556 37,000  Level Cleveland Center
02:02PM 39.8611 -80.0303 100° East 487 560 37,000 -660 Level Washington Center
02:03PM 39.8256 -79.8603 105° East 492 566 35,200 -2,220 Descending Washington Center
02:04PM 39.7900 -79.6881 105° East 497 572 32,600 -2,580 Descending Washington Center
02:05PM 39.7525 -79.5025 105° East 502 578 30,100 -2,280 Descending Washington Center
02:06PM 39.7158 -79.3386 106° East 462 532 28,100 -2,040 Descending Washington Center
02:07PM 39.6850 -79.1858 105° East 435 501 26,100 -1,560 Descending Washington Center
02:08PM 39.6519 -79.0361 106° East 435 501 25,000 -660 Descending Washington Center
02:09PM 39.6183 -78.9025 108° East 435 501 24,800 -1,020 Descending Washington Center
02:10PM 39.5850 -78.7475 106° East 435 501 23,000 -1,800 Descending Washington Center
02:11PM 39.5531 -78.6114 107° East 435 501 21,300 -1,740 Descending Washington Center
02:12PM 39.5228 -78.4783 106° East 435 501 19,600 -1,680 Descending Washington Center
02:13PM 39.4967 -78.3481 105° East 435 501 18,000 -1,680 Descending Washington Center
02:14PM 39.4683 -78.2233 106° East 435 501 16,300 -1,500 Descending Washington Center
02:15PM 39.4417 -78.0989 105° East 435 501 15,000 -660 Descending Washington Center
02:16PM 39.4128 -77.9797 107° East 359 413 15,000 -300 Level Washington Center
02:17PM 39.3881 -77.8633 105° East 344 396 14,400 -840 Descending Washington Center
02:18PM 39.3986 -77.7428 83° East 325 374 13,400 -1,080 Descending Washington Center
02:19PM 39.4131 -77.6278 81° East 325 374 12,300 -1,080 Descending Washington Center
02:20PM 39.4275 -77.5153 81° East 325 374 11,300 -660 Descending Washington Center
02:21PM 39.4417 -77.4081 80° East 318 366 11,000 -240 Descending Washington Center
02:21PM 39.4500 -77.3500 79° East 300 345 11,000 -120 Level Potomac TRACON
02:22PM 39.4667 -77.2500 78° East 297 342 10,900 -840 Descending Potomac TRACON
02:23PM 39.4833 -77.1500 78° East 304 350 9,400 -1,440 Descending Potomac TRACON
02:24PM 39.5000 -77.0333 79° East 298 343 8,000 -1,500 Descending Potomac TRACON
02:25PM 39.4833 -76.9500 105° East 270 311 6,400 -2,040 Descending Potomac TRACON
02:26PM 39.4333 -76.9333 166° South 233 268 4,000 -1,200 Descending Potomac TRACON
02:27PM 39.3667 -76.9000 159° South 211 243 4,000  Level Potomac TRACON
02:28PM 39.3167 -76.8833 166° South 213 245 4,000 -540 Level Potomac TRACON
02:29PM 39.2667 -76.8500 153° Southeast 214 246 3,000 -1,020 Descending Potomac TRACON
02:30PM 39.2167 -76.8167 153° Southeast 222 255 1,900 -900 Descending Potomac TRACON
02:31PM 39.1833 -76.7500 123° Southeast 178 205 1,300 -720 Descending Potomac TRACON
02:32PM 39.1833 -76.7000 90° East 130 150 500 -840 Descending Potomac TRACON
02:34PM 39.1667 -76.6667 142° Southeast  Level FlightAware Approximate
02:41PM 39.1754 -76.6683 142° Southeast  Level Estimated
02:42PM 39.1754 -76.6683 142° Southeast  Level Estimated
02:43PM 39.1754 -76.6683 142° Southeast  Level Estimated
02:44PM 39.1754 -76.6683 142° Southeast  Level Estimated
02:45PM 39.1754 -76.6683 142° Southeast  Level Estimated